Time;durP1;ratioP1;P1;durP2;ratioP2;P2;SDS_P1;SDS_P2;PMS_P1;PMS_P2;Temp;Humidity;BMP_temperature;BMP_pressure;BME280_temperature;BME280_humidity;BME280_pressure;Samples;Min_cycle;Max_cycle;Signal;HPM_P1;HPM_P2
2023/04/18 00:02:16;;;;;;;10.05;5.20;;;8.00;95.80;;;;;;5110576;28;20048;-70
2023/04/18 00:04:45;;;;;;;12.95;6.20;;;8.00;95.70;;;;;;5111189;28;20059;-69
2023/04/18 00:07:14;;;;;;;12.20;6.03;;;8.00;95.60;;;;;;5110295;28;20043;-69
2023/04/18 00:09:40;;;;;;;11.48;5.40;;;8.00;95.50;;;;;;5111079;28;20048;-69
2023/04/18 00:12:06;;;;;;;16.73;6.20;;;7.90;95.70;;;;;;5127262;27;20078;-70
2023/04/18 00:14:34;;;;;;;15.82;5.80;;;7.90;95.90;;;;;;5118011;27;20051;-69
2023/04/18 00:17:01;;;;;;;13.50;5.38;;;7.90;95.90;;;;;;5110628;28;20101;-69
2023/04/18 00:19:27;;;;;;;11.65;5.30;;;7.90;96.10;;;;;;5109756;28;20532;-69
2023/04/18 00:21:52;;;;;;;13.48;5.88;;;7.80;96.00;;;;;;5111044;28;20105;-70
2023/04/18 00:24:18;;;;;;;14.52;5.70;;;7.80;96.40;;;;;;5091902;28;20074;-69
2023/04/18 00:26:44;;;;;;;15.88;6.50;;;7.80;96.60;;;;;;5093182;28;20051;-69
2023/04/18 00:29:10;;;;;;;11.52;6.00;;;7.70;96.80;;;;;;5112181;28;20057;-69
2023/04/18 00:31:36;;;;;;;14.20;5.95;;;7.70;96.80;;;;;;5131436;27;20133;-70
2023/04/18 00:34:02;;;;;;;;;;;7.70;97.10;;;;;;5131416;27;20123;-71
2023/04/18 00:36:28;;;;;;;10.60;5.38;;;7.60;97.90;;;;;;5129647;28;20013;-69
2023/04/18 00:38:53;;;;;;;13.90;5.57;;;7.60;97.30;;;;;;5099884;28;20051;-69
2023/04/18 00:41:21;;;;;;;11.52;5.65;;;7.50;97.40;;;;;;5110146;28;20043;-69
2023/04/18 00:43:46;;;;;;;13.15;6.25;;;7.50;97.70;;;;;;5110966;28;20094;-69
2023/04/18 00:46:12;;;;;;;11.77;5.43;;;7.50;98.00;;;;;;5110328;28;20047;-69
2023/04/18 00:48:38;;;;;;;15.90;6.03;;;7.50;98.20;;;;;;5110664;28;20078;-69
2023/04/18 00:51:08;;;;;;;13.23;6.20;;;7.40;98.50;;;;;;5131538;28;20043;-70
2023/04/18 00:53:34;;;;;;;12.85;5.93;;;7.40;98.80;;;;;;5112481;28;20422;-69
2023/04/18 00:56:00;;;;;;;15.30;6.47;;;7.30;99.20;;;;;;5112709;28;20091;-70
2023/04/18 00:58:26;;;;;;;11.93;5.75;;;7.40;99.60;;;;;;5102445;28;20047;-69
2023/04/18 01:00:53;;;;;;;13.65;6.38;;;7.30;99.80;;;;;;5115091;28;20402;-70
2023/04/18 01:03:21;;;;;;;13.73;5.60;;;7.30;99.90;;;;;;5098456;27;20103;-70
2023/04/18 01:05:47;;;;;;;16.45;6.38;;;7.20;99.90;;;;;;5135237;27;20445;-69
2023/04/18 01:08:13;;;;;;;13.25;5.57;;;7.20;99.90;;;;;;5133538;27;20043;-71
2023/04/18 01:10:39;;;;;;;;;;;7.20;99.90;;;;;;5135413;27;20043;-69
2023/04/18 01:13:19;;;;;;;12.73;6.55;;;7.10;99.90;;;;;;5116819;27;20276;-70
2023/04/18 01:15:47;;;;;;;13.63;6.85;;;7.10;99.90;;;;;;5120955;27;20043;-69
2023/04/18 01:18:15;;;;;;;13.20;5.90;;;7.10;99.90;;;;;;5119779;27;20047;-69
2023/04/18 01:20:49;;;;;;;11.85;6.18;;;7.10;99.90;;;;;;5134525;27;20043;-69
2023/04/18 01:23:16;;;;;;;15.65;6.60;;;7.00;99.90;;;;;;5129771;27;20427;-69
2023/04/18 01:25:43;;;;;;;12.93;6.07;;;6.90;99.90;;;;;;5114417;28;20396;-69
2023/04/18 01:28:09;;;;;;;12.75;6.00;;;6.90;99.90;;;;;;5114032;28;20488;-72
2023/04/18 01:30:35;;;;;;;12.75;6.13;;;6.90;99.90;;;;;;5114038;28;20051;-69
2023/04/18 01:33:03;;;;;;;12.88;5.95;;;6.90;99.90;;;;;;5113546;28;20050;-69
2023/04/18 01:35:29;;;;;;;14.43;6.40;;;6.90;99.90;;;;;;5113049;28;20063;-69
2023/04/18 01:37:56;;;;;;;12.13;6.60;;;6.90;99.90;;;;;;5113140;28;20054;-70
2023/04/18 01:40:22;;;;;;;16.38;6.57;;;6.80;99.90;;;;;;5113804;27;20047;-69
2023/04/18 01:42:47;;;;;;;;;;;6.80;99.90;;;;;;5115452;27;20139;-69
2023/04/18 01:45:15;;;;;;;15.48;6.15;;;6.80;99.90;;;;;;5133835;27;20446;-69
2023/04/18 01:47:42;;;;;;;14.43;6.35;;;6.80;99.90;;;;;;5134056;27;20044;-69
2023/04/18 01:50:08;;;;;;;15.63;6.57;;;6.80;99.90;;;;;;5120743;27;20126;-69
2023/04/18 01:52:34;;;;;;;11.88;6.22;;;6.80;99.90;;;;;;5096718;28;20078;-69
2023/04/18 01:55:01;;;;;;;14.30;6.40;;;6.70;99.90;;;;;;5079133;28;20109;-69
2023/04/18 01:57:27;;;;;;;12.50;6.60;;;6.80;99.90;;;;;;5113183;28;20052;-69
2023/04/18 01:59:53;;;;;;;13.02;6.55;;;6.70;99.90;;;;;;5113994;28;20454;-69
2023/04/18 02:02:19;;;;;;;11.38;5.82;;;6.70;99.90;;;;;;5121179;27;20067;-69
2023/04/18 02:04:45;;;;;;;14.65;7.07;;;6.70;99.90;;;;;;5115558;27;20089;-69
2023/04/18 02:07:10;;;;;;;12.82;6.90;;;6.70;99.90;;;;;;5106656;27;20085;-72
2023/04/18 02:09:36;;;;;;;14.23;7.15;;;6.60;99.90;;;;;;5127928;27;20058;-69
2023/04/18 02:12:02;;;;;;;13.50;6.38;;;6.70;99.90;;;;;;5112321;28;20051;-69
2023/04/18 02:14:32;;;;;;;16.23;6.90;;;6.70;99.90;;;;;;5113129;28;20047;-69
2023/04/18 02:16:59;;;;;;;13.93;7.03;;;6.70;99.90;;;;;;5115128;27;20617;-69
2023/04/18 02:19:24;;;;;;;;;;;6.70;99.90;;;;;;5116188;27;20118;-69
2023/04/18 02:21:50;;;;;;;13.82;6.25;;;6.70;99.90;;;;;;5113187;28;20006;-70
2023/04/18 02:24:16;;;;;;;14.32;6.03;;;6.70;99.90;;;;;;5113473;27;20169;-69
2023/04/18 02:26:42;;;;;;;14.40;6.72;;;6.80;99.90;;;;;;5122902;27;20099;-69
2023/04/18 02:29:09;;;;;;;16.58;6.65;;;6.80;99.90;;;;;;5115571;27;20054;-69
2023/04/18 02:31:38;;;;;;;12.07;6.10;;;6.80;99.90;;;;;;5133286;27;20058;-70
2023/04/18 02:34:04;;;;;;;15.90;6.53;;;6.80;99.90;;;;;;5114994;27;20054;-69
2023/04/18 02:36:30;;;;;;;12.07;6.85;;;6.80;99.90;;;;;;5114414;27;20051;-69
2023/04/18 02:38:55;;;;;;;17.65;6.78;;;6.80;99.90;;;;;;5115389;27;20320;-69
2023/04/18 02:41:21;;;;;;;14.40;6.63;;;6.80;99.90;;;;;;5112496;28;20047;-69
2023/04/18 02:43:47;;;;;;;16.48;7.00;;;6.80;99.90;;;;;;5113096;28;20134;-69
2023/04/18 02:46:13;;;;;;;12.57;6.43;;;6.80;99.90;;;;;;5114612;27;20086;-69
2023/04/18 02:48:39;;;;;;;14.48;6.05;;;6.80;99.90;;;;;;5130015;27;20284;-69
2023/04/18 02:51:06;;;;;;;12.80;6.65;;;6.80;99.90;;;;;;5133203;27;20047;-69
2023/04/18 02:53:32;;;;;;;11.82;6.65;;;6.70;99.90;;;;;;5125615;27;20086;-69
2023/04/18 02:55:58;;;;;;;;;;;6.70;99.90;;;;;;5113205;28;20043;-69
2023/04/18 02:58:24;;;;;;;24.27;8.13;;;6.70;99.90;;;;;;5112032;28;19926;-69
2023/04/18 03:00:52;;;;;;;12.43;6.30;;;6.70;99.90;;;;;;5113010;28;20062;-69
2023/04/18 03:03:18;;;;;;;16.52;6.70;;;6.70;99.90;;;;;;5111541;28;20091;-70
2023/04/18 03:05:44;;;;;;;13.75;7.15;;;6.70;99.90;;;;;;5112572;28;20048;-69
2023/04/18 03:08:10;;;;;;;;;;;6.70;99.90;;;;;;5094170;27;20177;-69
2023/04/18 03:10:36;;;;;;;15.30;6.25;;;6.80;99.90;;;;;;5116175;27;20340;-69
2023/04/18 03:13:02;;;;;;;18.55;8.07;;;6.70;99.90;;;;;;5105669;28;20051;-69
2023/04/18 03:15:29;;;;;;;18.45;7.05;;;6.80;99.90;;;;;;5118260;27;20157;-68
2023/04/18 03:17:56;;;;;;;16.05;7.53;;;6.80;99.90;;;;;;5132297;27;20047;-69
2023/04/18 03:20:21;;;;;;;16.40;6.75;;;6.80;99.90;;;;;;5131462;27;20062;-69
2023/04/18 03:22:47;;;;;;;16.52;7.13;;;6.80;99.90;;;;;;5131962;27;20460;-69
2023/04/18 03:25:13;;;;;;;13.20;6.80;;;6.80;99.90;;;;;;5132722;27;20043;-69
2023/04/18 03:27:39;;;;;;;14.35;7.15;;;6.80;99.90;;;;;;5124847;27;20055;-69
2023/04/18 03:30:06;;;;;;;13.27;6.38;;;6.90;99.90;;;;;;5114881;27;20040;-69
2023/04/18 03:32:35;;;;;;;13.68;7.53;;;6.90;99.90;;;;;;5123450;27;20051;-69
2023/04/18 03:35:01;;;;;;;15.88;7.28;;;6.90;99.90;;;;;;5132053;27;20050;-69
2023/04/18 03:37:27;;;;;;;15.35;6.68;;;6.90;99.90;;;;;;5120476;27;20051;-69
2023/04/18 03:39:52;;;;;;;19.30;6.80;;;6.90;99.90;;;;;;5112119;28;20081;-69
2023/04/18 03:42:18;;;;;;;18.10;8.07;;;7.00;99.90;;;;;;5111341;28;20090;-72
2023/04/18 03:44:44;;;;;;;15.70;7.70;;;7.00;99.90;;;;;;5112182;28;20043;-68
2023/04/18 03:47:10;;;;;;;13.65;6.70;;;7.00;99.90;;;;;;5111348;28;20039;-69
2023/04/18 03:49:35;;;;;;;14.52;6.40;;;7.10;99.90;;;;;;5110863;28;20055;-69
2023/04/18 03:52:01;;;;;;;15.77;6.35;;;7.10;99.90;;;;;;5127653;27;20039;-69
2023/04/18 03:54:27;;;;;;;13.68;6.75;;;7.10;99.90;;;;;;5109788;27;20079;-69
2023/04/18 03:56:53;;;;;;;12.73;6.43;;;7.10;99.90;;;;;;5111434;28;20060;-69
2023/04/18 03:59:18;;;;;;;13.50;6.50;;;7.10;99.90;;;;;;5131034;27;20046;-72
2023/04/18 04:01:44;;;;;;;12.15;6.47;;;7.20;99.90;;;;;;5113456;27;20070;-69
2023/04/18 04:04:14;;;;;;;14.98;5.45;;;7.10;99.90;;;;;;5131051;27;20056;-69
2023/04/18 04:06:40;;;;;;;13.15;5.80;;;7.20;99.90;;;;;;5117255;27;20642;-69
2023/04/18 04:09:05;;;;;;;;;;;7.20;99.90;;;;;;5111016;28;20071;-69
2023/04/18 04:11:31;;;;;;;13.35;5.78;;;7.20;99.90;;;;;;5110615;28;19962;-70
2023/04/18 04:13:57;;;;;;;12.88;6.03;;;7.20;99.90;;;;;;5122826;27;20054;-69
2023/04/18 04:16:22;;;;;;;14.18;6.70;;;7.20;99.90;;;;;;5113153;27;20095;-69
2023/04/18 04:18:48;;;;;;;14.55;5.93;;;7.20;99.90;;;;;;5130911;27;20051;-69
2023/04/18 04:21:14;;;;;;;15.18;6.25;;;7.20;99.90;;;;;;5131823;27;20086;-69
2023/04/18 04:23:43;;;;;;;16.33;6.13;;;7.20;99.90;;;;;;5121945;27;20261;-69
2023/04/18 04:26:09;;;;;;;15.77;6.13;;;7.20;99.90;;;;;;5111298;28;20043;-69
2023/04/18 04:28:34;;;;;;;17.13;6.13;;;7.20;99.90;;;;;;5109422;28;20040;-69
2023/04/18 04:31:02;;;;;;;16.33;6.43;;;7.20;99.90;;;;;;5111041;28;20377;-69
2023/04/18 04:33:27;;;;;;;18.02;6.82;;;7.20;99.90;;;;;;5109126;28;20050;-69
2023/04/18 04:35:54;;;;;;;17.73;7.18;;;7.20;99.90;;;;;;5112065;28;20067;-69
2023/04/18 04:38:21;;;;;;;14.07;7.13;;;7.20;99.90;;;;;;5130420;28;20069;-69
2023/04/18 04:40:48;;;;;;;17.13;7.60;;;7.20;99.90;;;;;;5114369;28;20511;-69
2023/04/18 04:43:15;;;;;;;14.20;7.25;;;7.20;99.90;;;;;;5118807;28;20054;-69
2023/04/18 04:45:44;;;;;;;22.02;8.55;;;7.20;99.90;;;;;;5116039;28;20150;-69
2023/04/18 04:48:10;;;;;;;18.60;7.50;;;7.20;99.90;;;;;;5091596;28;20058;-69
2023/04/18 04:50:37;;;;;;;15.48;7.30;;;7.20;99.90;;;;;;5110051;28;20060;-69
2023/04/18 04:53:03;;;;;;;17.55;7.97;;;7.20;99.90;;;;;;5110307;28;20084;-69
2023/04/18 04:55:29;;;;;;;17.27;7.28;;;7.10;99.90;;;;;;5102840;28;20484;-69
2023/04/18 04:57:56;;;;;;;14.48;6.65;;;7.10;99.90;;;;;;5131057;28;20039;-69
2023/04/18 05:00:22;;;;;;;18.15;7.20;;;7.10;99.90;;;;;;5130550;28;20054;-71
2023/04/18 05:02:48;;;;;;;20.52;9.07;;;7.10;99.90;;;;;;5130485;28;20157;-69
2023/04/18 05:05:13;;;;;;;16.98;8.07;;;7.10;99.90;;;;;;5112953;28;20051;-69
2023/04/18 05:07:39;;;;;;;15.40;7.47;;;7.10;99.90;;;;;;5129911;28;20054;-69
2023/04/18 05:10:05;;;;;;;16.40;6.90;;;7.10;99.90;;;;;;5122079;28;20046;-69
2023/04/18 05:12:31;;;;;;;16.15;7.57;;;7.10;99.90;;;;;;5092382;28;20624;-69
2023/04/18 05:14:56;;;;;;;20.35;7.85;;;7.10;99.90;;;;;;5110721;28;20043;-70
2023/04/18 05:17:22;;;;;;;16.13;7.90;;;7.10;99.90;;;;;;5110169;28;20477;-71
2023/04/18 05:19:48;;;;;;;19.38;8.77;;;7.10;99.90;;;;;;5112344;28;20035;-69
2023/04/18 05:22:14;;;;;;;18.55;8.23;;;7.20;99.90;;;;;;5096118;28;20417;-69
2023/04/18 05:24:40;;;;;;;18.10;8.52;;;7.10;99.90;;;;;;5129647;28;20438;-69
2023/04/18 05:27:06;;;;;;;17.48;7.82;;;7.10;99.90;;;;;;5112973;28;20109;-69
2023/04/18 05:29:32;;;;;;;16.42;7.47;;;7.10;99.90;;;;;;5130725;28;20047;-69
2023/04/18 05:31:57;;;;;;;18.58;8.55;;;7.10;99.90;;;;;;5112584;28;20467;-70
2023/04/18 05:34:23;;;;;;;16.90;7.75;;;7.10;99.90;;;;;;5130387;28;20047;-69
2023/04/18 05:36:49;;;;;;;18.20;7.90;;;7.20;99.90;;;;;;5128349;28;20485;-69
2023/04/18 05:39:15;;;;;;;19.77;8.32;;;7.20;99.90;;;;;;5094419;28;20083;-69
2023/04/18 05:41:41;;;;;;;17.33;7.60;;;7.10;99.90;;;;;;5099397;28;20055;-69
2023/04/18 05:44:07;;;;;;;16.85;7.70;;;7.10;99.90;;;;;;5113723;28;20091;-69
2023/04/18 05:46:34;;;;;;;16.45;7.57;;;7.10;99.90;;;;;;5113689;28;20102;-69
2023/04/18 05:49:00;;;;;;;15.88;7.32;;;7.10;99.90;;;;;;5113210;28;20055;-69
2023/04/18 05:51:27;;;;;;;;;;;7.10;99.90;;;;;;5119655;27;20104;-72
2023/04/18 05:53:53;;;;;;;16.65;7.60;;;7.10;99.90;;;;;;5133382;27;19919;-69
2023/04/18 05:56:19;;;;;;;;;;;7.20;99.90;;;;;;5098664;27;20090;-69
2023/04/18 05:58:46;;;;;;;19.77;8.43;;;7.20;99.90;;;;;;5133804;27;20031;-69
2023/04/18 06:01:13;;;;;;;17.17;7.55;;;7.10;99.90;;;;;;5114647;27;20047;-69
2023/04/18 06:03:40;;;;;;;16.55;7.95;;;7.20;99.90;;;;;;5131575;27;20149;-69
2023/04/18 06:06:06;;;;;;;16.77;7.45;;;7.20;99.90;;;;;;5113846;28;20047;-70
2023/04/18 06:08:32;;;;;;;21.27;8.40;;;7.20;99.90;;;;;;5101457;27;20039;-69
2023/04/18 06:10:58;;;;;;;17.73;7.70;;;7.30;99.90;;;;;;5134417;27;20043;-69
2023/04/18 06:13:23;;;;;;;17.83;7.75;;;7.30;99.90;;;;;;5128781;27;20040;-69
2023/04/18 06:15:49;;;;;;;19.65;8.10;;;7.30;99.90;;;;;;5115313;27;20047;-70
2023/04/18 06:18:15;;;;;;;16.92;7.82;;;7.40;99.90;;;;;;5133774;27;20126;-70
2023/04/18 06:20:42;;;;;;;16.83;7.60;;;7.50;99.90;;;;;;5128287;27;20075;-67
2023/04/18 06:23:08;;;;;;;18.02;7.80;;;7.50;99.90;;;;;;5132276;27;20539;-66
2023/04/18 06:25:34;;;;;;;18.40;7.70;;;7.60;99.90;;;;;;5123808;27;20122;-68
2023/04/18 06:28:00;;;;;;;17.58;8.10;;;7.70;99.90;;;;;;5121561;27;20055;-69
2023/04/18 06:30:25;;;;;;;22.42;8.95;;;7.80;99.90;;;;;;5113400;28;20047;-70
2023/04/18 06:32:51;;;;;;;20.80;8.32;;;7.90;99.90;;;;;;5113600;27;20096;-71
2023/04/18 06:35:17;;;;;;;15.85;7.78;;;7.90;99.90;;;;;;5132314;27;20062;-69
2023/04/18 06:37:43;;;;;;;19.48;8.70;;;8.10;99.90;;;;;;5132311;27;20129;-68
2023/04/18 06:40:10;;;;;;;16.38;7.63;;;8.10;99.90;;;;;;5126583;27;20114;-69
2023/04/18 06:42:37;;;;;;;18.25;8.98;;;8.10;99.90;;;;;;5132850;27;20051;-69
2023/04/18 06:45:02;;;;;;;;;;;8.10;99.90;;;;;;5105396;28;20438;-69
2023/04/18 06:47:29;;;;;;;18.48;8.30;;;8.10;99.90;;;;;;5112375;28;19920;-69
2023/04/18 06:49:54;;;;;;;19.30;9.02;;;8.10;99.90;;;;;;5112238;28;20093;-69
2023/04/18 06:52:20;;;;;;;16.10;7.70;;;8.10;99.90;;;;;;5094460;28;20061;-69
2023/04/18 06:54:46;;;;;;;18.98;7.63;;;8.10;99.90;;;;;;5111936;28;20055;-69
2023/04/18 06:57:11;;;;;;;18.05;7.90;;;8.20;99.90;;;;;;5094683;28;20492;-69
2023/04/18 06:59:37;;;;;;;16.63;8.13;;;8.20;99.90;;;;;;5123217;27;20047;-69
2023/04/18 07:02:03;;;;;;;22.70;9.10;;;8.20;99.90;;;;;;5123924;27;20079;-69
2023/04/18 07:04:29;;;;;;;20.60;7.82;;;8.30;99.90;;;;;;5094191;28;20043;-69
2023/04/18 07:06:54;;;;;;;16.70;8.05;;;8.30;99.90;;;;;;5127532;27;20035;-69
2023/04/18 07:09:21;;;;;;;20.48;8.43;;;8.40;99.90;;;;;;5132290;27;20125;-69
2023/04/18 07:11:47;;;;;;;16.20;7.90;;;8.40;99.90;;;;;;5132019;27;20676;-69
2023/04/18 07:14:13;;;;;;;18.38;8.23;;;8.50;99.90;;;;;;5113680;27;20108;-69
2023/04/18 07:16:38;;;;;;;18.77;8.43;;;8.50;99.90;;;;;;5113856;27;20039;-70
2023/04/18 07:19:05;;;;;;;18.05;8.10;;;8.50;99.90;;;;;;5132400;27;20388;-69
2023/04/18 07:21:30;;;;;;;15.65;7.57;;;8.50;99.90;;;;;;5132709;27;20039;-69
2023/04/18 07:23:56;;;;;;;18.98;7.97;;;8.50;99.90;;;;;;5124661;27;20427;-69
2023/04/18 07:26:22;;;;;;;16.40;7.57;;;8.60;99.90;;;;;;5126785;27;20039;-69
2023/04/18 07:28:48;;;;;;;15.75;7.10;;;8.70;99.90;;;;;;5120767;27;20127;-71
2023/04/18 07:31:15;;;;;;;16.20;7.10;;;8.80;99.90;;;;;;5119525;27;20050;-71
2023/04/18 07:33:42;;;;;;;13.57;6.53;;;8.90;99.90;;;;;;5098809;28;20044;-70
2023/04/18 07:36:08;;;;;;;14.57;6.57;;;8.90;99.90;;;;;;5111575;27;20048;-77
2023/04/18 07:38:36;;;;;;;17.23;6.82;;;9.00;99.90;;;;;;5126465;27;20108;-77
2023/04/18 07:41:02;;;;;;;14.52;6.88;;;9.00;99.90;;;;;;5130628;27;20534;-77
2023/04/18 07:43:28;;;;;;;12.75;6.50;;;9.10;99.90;;;;;;5129645;27;20043;-76
2023/04/18 07:45:54;;;;;;;14.95;6.72;;;9.20;99.90;;;;;;5115320;27;20363;-76
2023/04/18 07:48:24;;;;;;;15.20;7.53;;;9.30;99.90;;;;;;5091788;28;20067;-76
2023/04/18 07:50:50;;;;;;;14.20;6.40;;;9.30;99.90;;;;;;5094566;27;20115;-76
2023/04/18 07:53:16;;;;;;;15.75;6.70;;;9.50;99.90;;;;;;5121149;27;20122;-76
2023/04/18 07:55:44;;;;;;;15.95;6.22;;;9.60;99.90;;;;;;5110206;27;20043;-76
2023/04/18 07:58:10;;;;;;;17.83;6.53;;;9.50;99.90;;;;;;5111914;27;20040;-76
2023/04/18 08:00:38;;;;;;;15.48;7.13;;;9.50;99.90;;;;;;5115434;27;20043;-76
2023/04/18 08:03:04;;;;;;;13.80;7.00;;;9.40;99.90;;;;;;5130795;27;20054;-76
2023/04/18 08:05:30;;;;;;;14.77;6.68;;;9.40;99.90;;;;;;5119183;27;20087;-75
2023/04/18 08:07:56;;;;;;;13.70;6.18;;;9.50;99.90;;;;;;5109273;28;20158;-76
2023/04/18 08:10:21;;;;;;;17.10;6.97;;;9.60;99.90;;;;;;5111464;27;20077;-76
2023/04/18 08:12:47;;;;;;;15.27;8.13;;;9.80;99.90;;;;;;5111833;27;20042;-72
2023/04/18 08:15:13;;;;;;;14.57;7.22;;;9.90;99.90;;;;;;5130716;27;20039;-71
2023/04/18 08:17:41;;;;;;;12.45;6.90;;;10.00;99.90;;;;;;5095398;27;20054;-72
2023/04/18 08:20:07;;;;;;;15.65;7.40;;;10.00;99.90;;;;;;5122505;27;20051;-71
2023/04/18 08:22:33;;;;;;;14.93;7.63;;;10.10;99.90;;;;;;5119213;27;20049;-71
2023/04/18 08:25:00;;;;;;;13.23;6.57;;;10.10;99.90;;;;;;5127467;27;20047;-71
2023/04/18 08:27:26;;;;;;;13.57;6.57;;;10.20;99.90;;;;;;5108134;28;20058;-71
2023/04/18 08:29:52;;;;;;;14.70;6.95;;;10.30;99.90;;;;;;5111015;27;20055;-71
2023/04/18 08:32:18;;;;;;;14.38;6.60;;;10.40;99.90;;;;;;5110678;28;20055;-71
2023/04/18 08:34:45;;;;;;;15.88;7.45;;;10.40;99.90;;;;;;5125015;27;20055;-71
2023/04/18 08:37:11;;;;;;;16.40;7.18;;;10.40;99.90;;;;;;5131473;27;20043;-72
2023/04/18 08:39:37;;;;;;;15.27;7.30;;;10.40;99.90;;;;;;5115971;28;20039;-71
2023/04/18 08:42:05;;;;;;;17.48;7.80;;;10.50;99.90;;;;;;5099579;28;20074;-71
2023/04/18 08:44:31;;;;;;;15.57;7.28;;;10.60;99.90;;;;;;5131261;28;20092;-71
2023/04/18 08:46:59;;;;;;;15.32;7.68;;;10.70;99.90;;;;;;5121012;28;20059;-73
2023/04/18 08:49:24;;;;;;;16.70;7.07;;;10.90;99.90;;;;;;5123737;28;20047;-72
2023/04/18 08:51:51;;;;;;;16.60;6.97;;;11.00;99.90;;;;;;5092269;28;20074;-70
2023/04/18 08:54:21;;;;;;;16.73;7.80;;;11.00;99.90;;;;;;5105648;28;20047;-73
2023/04/18 08:57:02;;;;;;;16.33;8.27;;;11.00;99.90;;;;;;5099822;28;20080;-78
2023/04/18 08:59:29;;;;;;;17.90;7.32;;;11.00;99.90;;;;;;5112466;28;20053;-78
2023/04/18 09:02:00;;;;;;;16.80;7.22;;;11.00;99.90;;;;;;5103569;28;20070;-75
2023/04/18 09:04:34;;;;;;;16.40;7.45;;;10.90;99.90;;;;;;5112417;28;20400;-75
2023/04/18 09:07:06;;;;;;;15.90;7.80;;;10.90;99.90;;;;;;5130470;28;20095;-76
2023/04/18 09:09:46;;;;;;;14.77;7.85;;;11.00;99.90;;;;;;5098345;28;20123;-75
2023/04/18 09:12:24;;;;;;;16.30;7.88;;;11.00;99.90;;;;;;5107930;28;20399;-75
2023/04/18 09:14:53;;;;;;;15.93;6.82;;;11.10;99.90;;;;;;5112153;28;20058;-75
2023/04/18 09:17:44;;;;;;;15.15;7.80;;;11.10;99.90;;;;;;5098717;27;20129;-75
2023/04/18 09:20:11;;;;;;;19.25;8.50;;;11.10;99.90;;;;;;5116347;27;20055;-73
2023/04/18 09:22:50;;;;;;;15.63;7.45;;;11.20;99.90;;;;;;5134008;27;20492;-74
2023/04/18 09:25:36;;;;;;;15.52;7.10;;;11.30;99.90;;;;;;5134764;27;20051;-74
2023/04/18 09:28:30;;;;;;;18.77;7.60;;;11.50;99.90;;;;;;5132981;27;20043;-74
2023/04/18 09:31:13;;;;;;;14.80;6.35;;;11.50;99.90;;;;;;5112347;27;20055;-74
2023/04/18 09:33:43;;;;;;;15.40;6.75;;;11.60;99.90;;;;;;5104979;28;20051;-74
2023/04/18 09:36:18;;;;;;;16.88;8.20;;;11.60;99.90;;;;;;5112473;28;20134;-74
2023/04/18 09:38:44;;;;;;;20.42;8.32;;;11.70;99.90;;;;;;5100734;28;20047;-84
2023/04/18 09:41:11;;;;;;;16.70;7.78;;;11.80;99.90;;;;;;5095956;28;20047;-73
2023/04/18 09:43:37;;;;;;;16.42;8.02;;;11.90;99.90;;;;;;5113228;28;20052;-72
2023/04/18 09:46:03;;;;;;;;;;;11.90;99.90;;;;;;5096146;28;20047;-72
2023/04/18 09:48:29;;;;;;;15.73;6.78;;;12.00;99.90;;;;;;5094421;28;20469;-76
2023/04/18 09:50:55;;;;;;;16.60;7.30;;;12.10;99.90;;;;;;5094514;28;20040;-75
2023/04/18 09:53:21;;;;;;;15.40;7.35;;;12.20;99.90;;;;;;5110534;27;20492;-74
2023/04/18 09:55:53;;;;;;;15.13;7.10;;;12.20;99.90;;;;;;5112436;28;20161;-83
2023/04/18 09:58:28;;;;;;;13.82;6.78;;;12.30;99.90;;;;;;5115300;27;20047;-83
2023/04/18 10:00:54;;;;;;;14.25;6.30;;;12.40;99.90;;;;;;5115317;27;20099;-83
2023/04/18 10:03:25;;;;;;;13.88;5.88;;;12.40;99.90;;;;;;5098466;27;20122;-83
2023/04/18 10:05:51;;;;;;;15.27;6.40;;;12.40;99.90;;;;;;5097690;27;20054;-83
2023/04/18 10:08:17;;;;;;;14.13;6.25;;;12.40;99.90;;;;;;5080035;28;20047;-83
2023/04/18 10:10:43;;;;;;;11.98;6.10;;;12.40;99.90;;;;;;5112270;28;20040;-82
2023/04/18 10:13:12;;;;;;;12.57;6.03;;;12.40;99.90;;;;;;5077038;28;20100;-83
2023/04/18 10:15:38;;;;;;;12.02;6.03;;;12.30;99.90;;;;;;5095339;28;20048;-82
2023/04/18 10:18:17;;;;;;;14.90;6.15;;;12.30;99.90;;;;;;5077059;28;20044;-83
2023/04/18 10:20:45;;;;;;;12.77;5.97;;;12.40;99.90;;;;;;5092482;27;20190;-83
2023/04/18 10:23:30;;;;;;;13.57;6.63;;;12.50;99.90;;;;;;5097660;27;20043;-83
2023/04/18 10:25:56;;;;;;;11.57;6.50;;;12.60;99.90;;;;;;5113919;27;20055;-83
2023/04/18 10:28:26;;;;;;;12.27;6.28;;;12.80;99.90;;;;;;5096609;27;20396;-82
2023/04/18 10:31:02;;;;;;;12.70;5.70;;;13.10;99.90;;;;;;5094921;28;20055;-82
2023/04/18 10:33:46;;;;;;;11.85;6.18;;;13.30;99.90;;;;;;5092463;28;20074;-84
2023/04/18 10:36:18;;;;;;;14.93;6.47;;;13.50;99.90;;;;;;5091193;28;20183;-76
2023/04/18 10:38:58;;;;;;;12.20;6.53;;;13.70;99.90;;;;;;5107092;28;20070;-78
2023/04/18 10:41:25;;;;;;;13.50;6.53;;;13.80;99.90;;;;;;5112117;28;20136;-78
2023/04/18 10:44:06;;;;;;;12.98;6.78;;;13.80;99.90;;;;;;5111472;28;20047;-76
2023/04/18 10:46:39;;;;;;;16.30;8.75;;;13.90;99.90;;;;;;5112625;27;20048;-75
2023/04/18 10:49:22;;;;;;;13.25;6.93;;;14.00;99.90;;;;;;5111931;28;20047;-76
2023/04/18 10:51:59;;;;;;;16.27;6.85;;;14.00;99.90;;;;;;5097947;28;20070;-79
2023/04/18 10:54:37;;;;;;;16.10;7.07;;;13.90;99.90;;;;;;5097630;28;20047;-78
2023/04/18 10:57:06;;;;;;;17.05;7.88;;;13.90;99.90;;;;;;5106488;28;20047;-78
2023/04/18 10:59:33;;;;;;;13.95;7.25;;;14.00;99.90;;;;;;5111354;28;20056;-77
2023/04/18 11:02:04;;;;;;;12.68;6.60;;;14.20;99.90;;;;;;5109222;28;20126;-76
2023/04/18 11:04:30;;;;;;;12.07;6.50;;;14.50;99.90;;;;;;5110334;28;20488;-77
2023/04/18 11:06:57;;;;;;;13.35;7.25;;;14.70;99.90;;;;;;5111216;28;20096;-76
2023/04/18 11:09:23;;;;;;;12.25;6.30;;;14.80;99.90;;;;;;5109647;28;20048;-77
2023/04/18 11:12:06;;;;;;;12.95;7.28;;;15.20;99.90;;;;;;5099567;28;20055;-77
2023/04/18 11:14:50;;;;;;;13.98;7.30;;;15.60;99.90;;;;;;5110148;28;20040;-78
2023/04/18 11:17:16;;;;;;;13.23;6.80;;;15.90;99.90;;;;;;5074956;28;20060;-80
2023/04/18 11:19:42;;;;;;;11.35;6.68;;;15.90;99.90;;;;;;5091322;28;20051;-73
2023/04/18 11:22:08;;;;;;;12.52;7.18;;;15.80;99.90;;;;;;5105275;28;20047;-78
2023/04/18 11:24:34;;;;;;;15.30;6.65;;;15.70;99.90;;;;;;5092164;28;20093;-77
2023/04/18 11:27:02;;;;;;;11.40;6.00;;;15.60;99.80;;;;;;5090991;28;20032;-77
2023/04/18 11:29:27;;;;;;;11.63;6.05;;;15.40;98.70;;;;;;5090109;28;20047;-77
2023/04/18 11:31:53;;;;;;;12.27;6.45;;;15.30;99.40;;;;;;5105090;28;20122;-78
2023/04/18 11:34:19;;;;;;;11.93;6.60;;;15.50;99.90;;;;;;5111410;28;20154;-78
2023/04/18 11:36:49;;;;;;;;;;;15.90;99.90;;;;;;5123495;27;20390;-71
2023/04/18 11:39:15;;;;;;;12.68;6.07;;;16.40;99.00;;;;;;5110409;28;19920;-72
2023/04/18 11:41:40;;;;;;;;;;;16.90;99.60;;;;;;5125410;27;20115;-74
2023/04/18 11:44:06;;;;;;;12.30;6.53;;;17.30;95.60;;;;;;5131715;27;19927;-75
2023/04/18 11:46:38;;;;;;;;;;;17.40;94.70;;;;;;5118551;27;20079;-73
2023/04/18 11:49:04;;;;;;;12.45;6.38;;;17.40;91.10;;;;;;5118087;27;19923;-73
2023/04/18 11:51:30;;;;;;;;;;;18.20;96.20;;;;;;5132126;27;20065;-70
2023/04/18 11:53:56;;;;;;;11.65;5.55;;;18.70;87.70;;;;;;5130579;27;19930;-71
2023/04/18 11:56:21;;;;;;;;;;;18.70;90.70;;;;;;5129872;27;20520;-71
2023/04/18 11:58:47;;;;;;;11.52;5.85;;;18.60;87.20;;;;;;5121134;27;19984;-71
2023/04/18 12:01:15;;;;;;;11.18;5.57;;;19.60;92.20;;;;;;5128216;27;20051;-71
2023/04/18 12:03:43;;;;;;;11.18;5.07;;;21.00;88.80;;;;;;5127644;27;20096;-71
2023/04/18 12:06:08;;;;;;;9.63;5.20;;;22.30;84.00;;;;;;5110322;28;20075;-72
2023/04/18 12:08:34;;;;;;;10.35;5.38;;;23.60;81.50;;;;;;5124252;27;20082;-73
2023/04/18 12:11:00;;;;;;;11.35;5.25;;;23.90;75.50;;;;;;5130581;27;20039;-76
2023/04/18 12:13:31;;;;;;;7.82;4.90;;;23.40;71.10;;;;;;5131249;27;20070;-67
2023/04/18 12:16:00;;;;;;;10.65;5.55;;;23.00;68.00;;;;;;5124769;27;20554;-72
2023/04/18 12:18:26;;;;;;;8.13;5.25;;;23.10;65.30;;;;;;5112336;27;20130;-71
2023/04/18 12:20:55;;;;;;;11.63;5.40;;;23.30;65.80;;;;;;5101824;27;20130;-72
2023/04/18 12:23:29;;;;;;;11.30;5.28;;;24.20;65.20;;;;;;5110236;28;20043;-74
2023/04/18 12:26:17;;;;;;;9.73;5.00;;;25.20;62.00;;;;;;5111408;27;20122;-79
2023/04/18 12:28:48;;;;;;;13.27;5.03;;;26.00;58.70;;;;;;5113001;27;20400;-72
2023/04/18 12:31:14;;;;;;;9.98;4.85;;;25.70;59.40;;;;;;5131172;27;20112;-72
2023/04/18 12:33:40;;;;;;;11.20;4.55;;;26.00;58.50;;;;;;5130372;28;20507;-72
2023/04/18 12:36:07;;;;;;;11.90;5.60;;;26.40;58.20;;;;;;5130681;27;20046;-72
2023/04/18 12:38:34;;;;;;;8.23;4.55;;;27.00;56.70;;;;;;5111373;28;20514;-73
2023/04/18 12:40:59;;;;;;;9.20;5.05;;;27.40;55.20;;;;;;5108606;28;20397;-73
2023/04/18 12:43:25;;;;;;;9.90;4.50;;;28.00;55.00;;;;;;5111022;28;20044;-73
2023/04/18 12:45:51;;;;;;;8.07;4.82;;;28.30;54.50;;;;;;5128339;28;20088;-75
2023/04/18 12:48:17;;;;;;;11.02;5.30;;;28.50;51.90;;;;;;5120284;28;20039;-76
2023/04/18 12:50:42;;;;;;;10.07;5.07;;;28.60;51.60;;;;;;5129495;28;20572;-73